sensor_id;sensor_type;location;lat;lon;timestamp;P1;durP1;ratioP1;P2;durP2;ratioP2
8100;SDS011;4093;53.470;9.832;2023-04-03T00:01:10;6.30;;;2.70;;
8100;SDS011;4093;53.470;9.832;2023-04-03T00:03:38;3.53;;;2.50;;
8100;SDS011;4093;53.470;9.832;2023-04-03T00:06:07;8.53;;;3.13;;
8100;SDS011;4093;53.470;9.832;2023-04-03T00:08:37;5.27;;;3.50;;
8100;SDS011;4093;53.470;9.832;2023-04-03T00:11:06;6.40;;;2.63;;
8100;SDS011;4093;53.470;9.832;2023-04-03T00:13:34;5.20;;;2.50;;
8100;SDS011;4093;53.470;9.832;2023-04-03T00:16:04;4.40;;;2.40;;
8100;SDS011;4093;53.470;9.832;2023-04-03T00:18:32;4.00;;;2.30;;
8100;SDS011;4093;53.470;9.832;2023-04-03T00:21:00;3.17;;;2.43;;
8100;SDS011;4093;53.470;9.832;2023-04-03T00:23:28;3.87;;;2.80;;
8100;SDS011;4093;53.470;9.832;2023-04-03T00:25:55;4.73;;;2.63;;
8100;SDS011;4093;53.470;9.832;2023-04-03T00:28:23;7.90;;;2.53;;
8100;SDS011;4093;53.470;9.832;2023-04-03T00:30:51;6.83;;;2.30;;
8100;SDS011;4093;53.470;9.832;2023-04-03T00:33:21;4.67;;;2.50;;
8100;SDS011;4093;53.470;9.832;2023-04-03T00:35:50;6.70;;;2.67;;
8100;SDS011;4093;53.470;9.832;2023-04-03T00:38:19;7.20;;;4.13;;
8100;SDS011;4093;53.470;9.832;2023-04-03T00:40:47;5.67;;;2.60;;
8100;SDS011;4093;53.470;9.832;2023-04-03T00:43:16;3.30;;;2.17;;
8100;SDS011;4093;53.470;9.832;2023-04-03T00:45:46;5.93;;;2.60;;
8100;SDS011;4093;53.470;9.832;2023-04-03T00:48:16;3.50;;;2.63;;
8100;SDS011;4093;53.470;9.832;2023-04-03T00:50:48;5.03;;;2.70;;
8100;SDS011;4093;53.470;9.832;2023-04-03T00:53:17;4.63;;;2.20;;
8100;SDS011;4093;53.470;9.832;2023-04-03T00:55:49;5.47;;;2.47;;
8100;SDS011;4093;53.470;9.832;2023-04-03T00:58:18;3.73;;;2.30;;
8100;SDS011;4093;53.470;9.832;2023-04-03T01:00:50;3.07;;;2.40;;
8100;SDS011;4093;53.470;9.832;2023-04-03T01:03:23;5.13;;;2.40;;
8100;SDS011;4093;53.470;9.832;2023-04-03T01:05:53;3.87;;;2.60;;
8100;SDS011;4093;53.470;9.832;2023-04-03T01:08:21;4.17;;;2.20;;
8100;SDS011;4093;53.470;9.832;2023-04-03T01:10:48;3.83;;;2.50;;
8100;SDS011;4093;53.470;9.832;2023-04-03T01:13:17;6.00;;;2.67;;
8100;SDS011;4093;53.470;9.832;2023-04-03T01:15:46;4.40;;;2.60;;
8100;SDS011;4093;53.470;9.832;2023-04-03T01:18:14;3.93;;;2.40;;
8100;SDS011;4093;53.470;9.832;2023-04-03T01:23:57;4.33;;;2.27;;
8100;SDS011;4093;53.470;9.832;2023-04-03T01:26:30;6.03;;;3.23;;
8100;SDS011;4093;53.470;9.832;2023-04-03T01:28:59;9.43;;;4.77;;
8100;SDS011;4093;53.470;9.832;2023-04-03T01:31:28;9.53;;;4.73;;
8100;SDS011;4093;53.470;9.832;2023-04-03T01:34:01;5.83;;;2.70;;
8100;SDS011;4093;53.470;9.832;2023-04-03T01:36:30;3.60;;;2.50;;
8100;SDS011;4093;53.470;9.832;2023-04-03T01:38:58;5.60;;;2.87;;
8100;SDS011;4093;53.470;9.832;2023-04-03T01:41:27;4.70;;;2.50;;
8100;SDS011;4093;53.470;9.832;2023-04-03T01:43:56;6.33;;;2.90;;
8100;SDS011;4093;53.470;9.832;2023-04-03T01:46:23;9.37;;;3.17;;
8100;SDS011;4093;53.470;9.832;2023-04-03T01:48:51;7.00;;;2.70;;
8100;SDS011;4093;53.470;9.832;2023-04-03T01:51:20;5.53;;;2.30;;
8100;SDS011;4093;53.470;9.832;2023-04-03T01:53:48;4.83;;;2.40;;
8100;SDS011;4093;53.470;9.832;2023-04-03T01:56:16;6.30;;;2.60;;
8100;SDS011;4093;53.470;9.832;2023-04-03T01:58:43;3.53;;;2.60;;
8100;SDS011;4093;53.470;9.832;2023-04-03T02:01:11;4.40;;;2.80;;
8100;SDS011;4093;53.470;9.832;2023-04-03T02:03:39;5.07;;;2.30;;
8100;SDS011;4093;53.470;9.832;2023-04-03T02:06:07;5.77;;;2.70;;
8100;SDS011;4093;53.470;9.832;2023-04-03T02:08:39;6.27;;;2.70;;
8100;SDS011;4093;53.470;9.832;2023-04-03T02:11:07;3.57;;;2.50;;
8100;SDS011;4093;53.470;9.832;2023-04-03T02:13:35;4.03;;;2.40;;
8100;SDS011;4093;53.470;9.832;2023-04-03T02:16:06;4.63;;;2.50;;
8100;SDS011;4093;53.470;9.832;2023-04-03T02:18:36;4.67;;;2.47;;
8100;SDS011;4093;53.470;9.832;2023-04-03T02:21:04;6.80;;;3.10;;
8100;SDS011;4093;53.470;9.832;2023-04-03T02:23:32;5.33;;;2.73;;
8100;SDS011;4093;53.470;9.832;2023-04-03T02:26:04;6.40;;;2.50;;
8100;SDS011;4093;53.470;9.832;2023-04-03T02:28:33;5.93;;;3.30;;
8100;SDS011;4093;53.470;9.832;2023-04-03T02:31:01;4.57;;;2.60;;
8100;SDS011;4093;53.470;9.832;2023-04-03T02:33:29;5.43;;;2.50;;
8100;SDS011;4093;53.470;9.832;2023-04-03T02:35:57;4.87;;;3.50;;
8100;SDS011;4093;53.470;9.832;2023-04-03T02:38:26;8.43;;;4.67;;
8100;SDS011;4093;53.470;9.832;2023-04-03T02:40:55;7.03;;;3.10;;
8100;SDS011;4093;53.470;9.832;2023-04-03T02:43:28;6.90;;;2.83;;
8100;SDS011;4093;53.470;9.832;2023-04-03T02:45:56;6.50;;;2.80;;
8100;SDS011;4093;53.470;9.832;2023-04-03T02:48:24;6.00;;;2.40;;
8100;SDS011;4093;53.470;9.832;2023-04-03T02:50:52;7.97;;;2.80;;
8100;SDS011;4093;53.470;9.832;2023-04-03T02:53:20;5.40;;;2.70;;
8100;SDS011;4093;53.470;9.832;2023-04-03T02:55:48;5.27;;;2.63;;
8100;SDS011;4093;53.470;9.832;2023-04-03T02:58:15;4.67;;;2.60;;
8100;SDS011;4093;53.470;9.832;2023-04-03T03:00:45;4.83;;;2.80;;
8100;SDS011;4093;53.470;9.832;2023-04-03T03:03:12;4.97;;;2.50;;
8100;SDS011;4093;53.470;9.832;2023-04-03T03:05:41;5.27;;;2.73;;
8100;SDS011;4093;53.470;9.832;2023-04-03T03:08:08;6.30;;;2.50;;
8100;SDS011;4093;53.470;9.832;2023-04-03T03:10:36;5.07;;;2.70;;
8100;SDS011;4093;53.470;9.832;2023-04-03T03:13:04;5.70;;;2.97;;
8100;SDS011;4093;53.470;9.832;2023-04-03T03:15:32;5.77;;;2.57;;
8100;SDS011;4093;53.470;9.832;2023-04-03T03:18:01;5.57;;;2.53;;
8100;SDS011;4093;53.470;9.832;2023-04-03T03:20:29;5.73;;;2.67;;
8100;SDS011;4093;53.470;9.832;2023-04-03T03:22:57;3.33;;;2.03;;
8100;SDS011;4093;53.470;9.832;2023-04-03T03:25:24;8.17;;;2.50;;
8100;SDS011;4093;53.470;9.832;2023-04-03T03:27:52;4.43;;;3.10;;
8100;SDS011;4093;53.470;9.832;2023-04-03T03:30:20;6.07;;;2.90;;
8100;SDS011;4093;53.470;9.832;2023-04-03T03:32:47;8.93;;;3.53;;
8100;SDS011;4093;53.470;9.832;2023-04-03T03:35:17;3.80;;;2.40;;
8100;SDS011;4093;53.470;9.832;2023-04-03T03:37:44;8.80;;;2.50;;
8100;SDS011;4093;53.470;9.832;2023-04-03T03:40:12;6.77;;;2.93;;
8100;SDS011;4093;53.470;9.832;2023-04-03T03:42:43;5.20;;;2.43;;
8100;SDS011;4093;53.470;9.832;2023-04-03T03:45:11;4.87;;;2.47;;
8100;SDS011;4093;53.470;9.832;2023-04-03T03:47:38;4.47;;;2.83;;
8100;SDS011;4093;53.470;9.832;2023-04-03T03:50:06;4.73;;;2.50;;
8100;SDS011;4093;53.470;9.832;2023-04-03T03:52:37;6.13;;;2.47;;
8100;SDS011;4093;53.470;9.832;2023-04-03T03:55:05;3.67;;;3.27;;
8100;SDS011;4093;53.470;9.832;2023-04-03T03:57:33;6.23;;;2.63;;
8100;SDS011;4093;53.470;9.832;2023-04-03T04:00:01;3.27;;;2.53;;
8100;SDS011;4093;53.470;9.832;2023-04-03T04:02:30;3.20;;;2.20;;
8100;SDS011;4093;53.470;9.832;2023-04-03T04:04:58;5.47;;;2.63;;
8100;SDS011;4093;53.470;9.832;2023-04-03T04:07:25;5.17;;;2.43;;
8100;SDS011;4093;53.470;9.832;2023-04-03T04:09:56;2.93;;;2.00;;
8100;SDS011;4093;53.470;9.832;2023-04-03T04:12:24;6.03;;;2.03;;
8100;SDS011;4093;53.470;9.832;2023-04-03T04:14:52;3.10;;;2.50;;
8100;SDS011;4093;53.470;9.832;2023-04-03T04:17:20;7.17;;;2.93;;
8100;SDS011;4093;53.470;9.832;2023-04-03T04:19:48;5.10;;;2.70;;
8100;SDS011;4093;53.470;9.832;2023-04-03T04:22:16;4.83;;;2.27;;
8100;SDS011;4093;53.470;9.832;2023-04-03T04:24:44;7.00;;;2.73;;
8100;SDS011;4093;53.470;9.832;2023-04-03T04:27:13;6.20;;;2.67;;
8100;SDS011;4093;53.470;9.832;2023-04-03T04:29:41;4.67;;;2.17;;
8100;SDS011;4093;53.470;9.832;2023-04-03T04:32:09;6.80;;;3.03;;
8100;SDS011;4093;53.470;9.832;2023-04-03T04:34:37;3.13;;;2.27;;
8100;SDS011;4093;53.470;9.832;2023-04-03T04:37:05;3.63;;;2.30;;
8100;SDS011;4093;53.470;9.832;2023-04-03T04:39:32;5.27;;;2.50;;
8100;SDS011;4093;53.470;9.832;2023-04-03T04:42:00;4.53;;;2.57;;
8100;SDS011;4093;53.470;9.832;2023-04-03T04:44:30;3.07;;;2.43;;
8100;SDS011;4093;53.470;9.832;2023-04-03T04:46:57;6.20;;;2.90;;
8100;SDS011;4093;53.470;9.832;2023-04-03T04:49:25;5.17;;;4.67;;
8100;SDS011;4093;53.470;9.832;2023-04-03T04:51:53;4.50;;;2.97;;
8100;SDS011;4093;53.470;9.832;2023-04-03T04:54:21;5.20;;;3.17;;
8100;SDS011;4093;53.470;9.832;2023-04-03T04:56:49;4.70;;;2.17;;
8100;SDS011;4093;53.470;9.832;2023-04-03T04:59:16;5.33;;;2.53;;
8100;SDS011;4093;53.470;9.832;2023-04-03T05:01:48;3.67;;;2.50;;
8100;SDS011;4093;53.470;9.832;2023-04-03T05:04:16;2.60;;;2.40;;
8100;SDS011;4093;53.470;9.832;2023-04-03T05:06:44;4.90;;;3.23;;
8100;SDS011;4093;53.470;9.832;2023-04-03T05:09:12;3.43;;;2.37;;
8100;SDS011;4093;53.470;9.832;2023-04-03T05:11:39;4.27;;;3.00;;
8100;SDS011;4093;53.470;9.832;2023-04-03T05:14:07;4.13;;;2.83;;
8100;SDS011;4093;53.470;9.832;2023-04-03T05:16:35;8.53;;;2.77;;
8100;SDS011;4093;53.470;9.832;2023-04-03T05:19:04;4.37;;;2.60;;
8100;SDS011;4093;53.470;9.832;2023-04-03T05:21:32;4.47;;;2.30;;
8100;SDS011;4093;53.470;9.832;2023-04-03T05:24:00;5.43;;;2.50;;
8100;SDS011;4093;53.470;9.832;2023-04-03T05:26:29;2.93;;;2.30;;
8100;SDS011;4093;53.470;9.832;2023-04-03T05:28:57;6.30;;;2.63;;
8100;SDS011;4093;53.470;9.832;2023-04-03T05:31:25;5.47;;;2.70;;
8100;SDS011;4093;53.470;9.832;2023-04-03T05:33:55;6.63;;;2.60;;
8100;SDS011;4093;53.470;9.832;2023-04-03T05:36:25;3.33;;;2.63;;
8100;SDS011;4093;53.470;9.832;2023-04-03T05:38:53;3.93;;;2.40;;
8100;SDS011;4093;53.470;9.832;2023-04-03T05:41:22;3.93;;;2.20;;
8100;SDS011;4093;53.470;9.832;2023-04-03T05:43:51;3.60;;;2.30;;
8100;SDS011;4093;53.470;9.832;2023-04-03T05:46:19;9.50;;;2.87;;
8100;SDS011;4093;53.470;9.832;2023-04-03T05:48:48;4.70;;;2.50;;
8100;SDS011;4093;53.470;9.832;2023-04-03T05:51:17;6.67;;;2.63;;
8100;SDS011;4093;53.470;9.832;2023-04-03T05:53:50;6.80;;;3.13;;
8100;SDS011;4093;53.470;9.832;2023-04-03T05:56:23;4.97;;;2.90;;
8100;SDS011;4093;53.470;9.832;2023-04-03T05:58:51;6.50;;;2.90;;
8100;SDS011;4093;53.470;9.832;2023-04-03T06:01:19;8.63;;;2.53;;
8100;SDS011;4093;53.470;9.832;2023-04-03T06:03:47;5.13;;;2.80;;
8100;SDS011;4093;53.470;9.832;2023-04-03T06:06:15;5.23;;;2.57;;
8100;SDS011;4093;53.470;9.832;2023-04-03T06:08:43;7.90;;;2.40;;
8100;SDS011;4093;53.470;9.832;2023-04-03T06:11:12;6.87;;;2.57;;
8100;SDS011;4093;53.470;9.832;2023-04-03T06:13:40;5.57;;;2.20;;
8100;SDS011;4093;53.470;9.832;2023-04-03T06:16:08;4.40;;;2.63;;
8100;SDS011;4093;53.470;9.832;2023-04-03T06:18:36;3.37;;;2.57;;
8100;SDS011;4093;53.470;9.832;2023-04-03T06:21:04;5.07;;;2.43;;
8100;SDS011;4093;53.470;9.832;2023-04-03T06:23:33;4.20;;;2.47;;
8100;SDS011;4093;53.470;9.832;2023-04-03T06:26:01;3.93;;;2.57;;
8100;SDS011;4093;53.470;9.832;2023-04-03T06:28:31;5.00;;;2.90;;
8100;SDS011;4093;53.470;9.832;2023-04-03T06:30:58;4.50;;;2.30;;
8100;SDS011;4093;53.470;9.832;2023-04-03T06:33:26;3.80;;;2.38;;
8100;SDS011;4093;53.470;9.832;2023-04-03T06:35:57;3.90;;;2.42;;
8100;SDS011;4093;53.470;9.832;2023-04-03T06:38:25;4.40;;;2.92;;
8100;SDS011;4093;53.470;9.832;2023-04-03T06:40:53;5.05;;;2.67;;
8100;SDS011;4093;53.470;9.832;2023-04-03T06:43:22;6.25;;;3.45;;
8100;SDS011;4093;53.470;9.832;2023-04-03T06:45:52;8.35;;;3.33;;
8100;SDS011;4093;53.470;9.832;2023-04-03T06:48:19;5.93;;;3.60;;
8100;SDS011;4093;53.470;9.832;2023-04-03T06:50:48;4.95;;;3.70;;
8100;SDS011;4093;53.470;9.832;2023-04-03T06:53:15;6.40;;;3.35;;
8100;SDS011;4093;53.470;9.832;2023-04-03T06:55:43;5.75;;;4.13;;
8100;SDS011;4093;53.470;9.832;2023-04-03T06:58:13;8.73;;;4.40;;
8100;SDS011;4093;53.470;9.832;2023-04-03T07:00:44;9.38;;;4.20;;
8100;SDS011;4093;53.470;9.832;2023-04-03T07:03:14;9.27;;;4.13;;
8100;SDS011;4093;53.470;9.832;2023-04-03T07:05:42;8.95;;;4.30;;
8100;SDS011;4093;53.470;9.832;2023-04-03T07:08:11;7.55;;;4.22;;
8100;SDS011;4093;53.470;9.832;2023-04-03T07:10:38;8.23;;;3.97;;
8100;SDS011;4093;53.470;9.832;2023-04-03T07:13:06;6.53;;;4.03;;
8100;SDS011;4093;53.470;9.832;2023-04-03T07:15:34;7.72;;;3.22;;
8100;SDS011;4093;53.470;9.832;2023-04-03T07:18:03;7.90;;;3.88;;
8100;SDS011;4093;53.470;9.832;2023-04-03T07:20:33;9.65;;;3.95;;
8100;SDS011;4093;53.470;9.832;2023-04-03T07:23:01;7.45;;;3.75;;
8100;SDS011;4093;53.470;9.832;2023-04-03T07:25:29;8.02;;;4.00;;
8100;SDS011;4093;53.470;9.832;2023-04-03T07:27:57;6.68;;;3.75;;
8100;SDS011;4093;53.470;9.832;2023-04-03T07:30:25;7.07;;;3.80;;
8100;SDS011;4093;53.470;9.832;2023-04-03T07:32:53;6.53;;;3.78;;
8100;SDS011;4093;53.470;9.832;2023-04-03T07:35:21;5.43;;;3.67;;
8100;SDS011;4093;53.470;9.832;2023-04-03T07:37:50;4.95;;;3.00;;
8100;SDS011;4093;53.470;9.832;2023-04-03T07:40:18;4.97;;;3.30;;
8100;SDS011;4093;53.470;9.832;2023-04-03T07:42:46;6.80;;;3.35;;
8100;SDS011;4093;53.470;9.832;2023-04-03T07:45:13;8.38;;;3.70;;
8100;SDS011;4093;53.470;9.832;2023-04-03T07:47:41;7.50;;;3.40;;
8100;SDS011;4093;53.470;9.832;2023-04-03T07:50:09;4.93;;;2.75;;
8100;SDS011;4093;53.470;9.832;2023-04-03T07:52:37;8.80;;;3.00;;
8100;SDS011;4093;53.470;9.832;2023-04-03T07:55:07;5.35;;;2.85;;
8100;SDS011;4093;53.470;9.832;2023-04-03T07:57:35;5.75;;;2.25;;
8100;SDS011;4093;53.470;9.832;2023-04-03T08:00:04;4.72;;;2.70;;
8100;SDS011;4093;53.470;9.832;2023-04-03T08:02:32;3.90;;;2.80;;
8100;SDS011;4093;53.470;9.832;2023-04-03T08:05:00;5.35;;;2.80;;
8100;SDS011;4093;53.470;9.832;2023-04-03T08:07:28;3.63;;;2.15;;
8100;SDS011;4093;53.470;9.832;2023-04-03T08:09:56;5.35;;;2.38;;
8100;SDS011;4093;53.470;9.832;2023-04-03T08:12:25;2.97;;;1.70;;
8100;SDS011;4093;53.470;9.832;2023-04-03T08:14:54;7.97;;;3.00;;
8100;SDS011;4093;53.470;9.832;2023-04-03T08:17:22;3.00;;;1.83;;
8100;SDS011;4093;53.470;9.832;2023-04-03T08:19:50;5.70;;;2.30;;
8100;SDS011;4093;53.470;9.832;2023-04-03T08:22:17;4.80;;;2.28;;
8100;SDS011;4093;53.470;9.832;2023-04-03T08:24:45;5.23;;;2.30;;
8100;SDS011;4093;53.470;9.832;2023-04-03T08:27:25;3.70;;;2.17;;
8100;SDS011;4093;53.470;9.832;2023-04-03T08:29:53;2.50;;;1.77;;
8100;SDS011;4093;53.470;9.832;2023-04-03T08:32:21;3.20;;;2.20;;
8100;SDS011;4093;53.470;9.832;2023-04-03T08:34:49;4.80;;;1.90;;
8100;SDS011;4093;53.470;9.832;2023-04-03T08:37:17;4.10;;;2.30;;
8100;SDS011;4093;53.470;9.832;2023-04-03T08:39:45;5.03;;;2.07;;
8100;SDS011;4093;53.470;9.832;2023-04-03T08:42:15;4.03;;;2.40;;
8100;SDS011;4093;53.470;9.832;2023-04-03T08:44:50;5.83;;;2.17;;
8100;SDS011;4093;53.470;9.832;2023-04-03T08:47:25;3.90;;;1.97;;
8100;SDS011;4093;53.470;9.832;2023-04-03T08:50:00;5.00;;;2.23;;
8100;SDS011;4093;53.470;9.832;2023-04-03T08:52:32;4.32;;;2.25;;
8100;SDS011;4093;53.470;9.832;2023-04-03T08:55:04;3.40;;;1.90;;
8100;SDS011;4093;53.470;9.832;2023-04-03T08:57:35;3.95;;;2.25;;
8100;SDS011;4093;53.470;9.832;2023-04-03T09:00:16;2.97;;;1.87;;
8100;SDS011;4093;53.470;9.832;2023-04-03T09:02:46;2.50;;;1.97;;
8100;SDS011;4093;53.470;9.832;2023-04-03T09:05:16;4.93;;;2.13;;
8100;SDS011;4093;53.470;9.832;2023-04-03T09:07:46;3.70;;;2.27;;
8100;SDS011;4093;53.470;9.832;2023-04-03T09:10:18;3.30;;;2.10;;
8100;SDS011;4093;53.470;9.832;2023-04-03T09:12:53;4.40;;;2.30;;
8100;SDS011;4093;53.470;9.832;2023-04-03T09:15:27;5.90;;;2.42;;
8100;SDS011;4093;53.470;9.832;2023-04-03T09:18:05;3.23;;;2.00;;
8100;SDS011;4093;53.470;9.832;2023-04-03T09:20:42;6.93;;;2.20;;
8100;SDS011;4093;53.470;9.832;2023-04-03T09:23:14;4.70;;;2.40;;
8100;SDS011;4093;53.470;9.832;2023-04-03T09:28:53;3.60;;;2.20;;
8100;SDS011;4093;53.470;9.832;2023-04-03T09:31:26;4.03;;;2.20;;
8100;SDS011;4093;53.470;9.832;2023-04-03T09:34:07;2.93;;;2.10;;
8100;SDS011;4093;53.470;9.832;2023-04-03T09:36:44;3.07;;;2.33;;
8100;SDS011;4093;53.470;9.832;2023-04-03T09:39:14;4.70;;;2.17;;
8100;SDS011;4093;53.470;9.832;2023-04-03T09:41:54;6.77;;;2.27;;
8100;SDS011;4093;53.470;9.832;2023-04-03T09:44:28;3.20;;;1.77;;
8100;SDS011;4093;53.470;9.832;2023-04-03T09:46:58;4.20;;;2.13;;
8100;SDS011;4093;53.470;9.832;2023-04-03T09:49:26;3.90;;;2.10;;
8100;SDS011;4093;53.470;9.832;2023-04-03T09:51:54;3.53;;;2.50;;
8100;SDS011;4093;53.470;9.832;2023-04-03T09:54:30;2.97;;;2.10;;
8100;SDS011;4093;53.470;9.832;2023-04-03T09:57:01;5.07;;;2.03;;
8100;SDS011;4093;53.470;9.832;2023-04-03T09:59:32;2.70;;;2.00;;
8100;SDS011;4093;53.470;9.832;2023-04-03T10:02:03;4.40;;;2.20;;
8100;SDS011;4093;53.470;9.832;2023-04-03T10:04:47;3.97;;;1.93;;
8100;SDS011;4093;53.470;9.832;2023-04-03T10:07:34;4.07;;;2.13;;
8100;SDS011;4093;53.470;9.832;2023-04-03T10:10:15;5.50;;;2.00;;
8100;SDS011;4093;53.470;9.832;2023-04-03T10:12:46;5.80;;;2.00;;
8100;SDS011;4093;53.470;9.832;2023-04-03T10:15:15;6.27;;;2.77;;
8100;SDS011;4093;53.470;9.832;2023-04-03T10:17:53;3.23;;;2.13;;
8100;SDS011;4093;53.470;9.832;2023-04-03T10:20:29;2.80;;;2.20;;
8100;SDS011;4093;53.470;9.832;2023-04-03T10:23:12;3.20;;;2.07;;
8100;SDS011;4093;53.470;9.832;2023-04-03T10:25:46;3.43;;;2.27;;
8100;SDS011;4093;53.470;9.832;2023-04-03T10:28:24;4.00;;;2.37;;
8100;SDS011;4093;53.470;9.832;2023-04-03T10:30:59;3.93;;;1.83;;
8100;SDS011;4093;53.470;9.832;2023-04-03T10:33:39;3.03;;;2.13;;
8100;SDS011;4093;53.470;9.832;2023-04-03T10:36:24;2.43;;;2.00;;
8100;SDS011;4093;53.470;9.832;2023-04-03T10:39:08;3.37;;;2.10;;
8100;SDS011;4093;53.470;9.832;2023-04-03T10:41:46;4.70;;;2.23;;
8100;SDS011;4093;53.470;9.832;2023-04-03T10:44:42;2.67;;;2.10;;
8100;SDS011;4093;53.470;9.832;2023-04-03T10:47:22;4.77;;;2.10;;
8100;SDS011;4093;53.470;9.832;2023-04-03T10:49:59;3.33;;;2.13;;
8100;SDS011;4093;53.470;9.832;2023-04-03T10:52:37;4.73;;;2.30;;
8100;SDS011;4093;53.470;9.832;2023-04-03T10:55:19;5.50;;;2.33;;
8100;SDS011;4093;53.470;9.832;2023-04-03T10:57:57;3.90;;;2.00;;
8100;SDS011;4093;53.470;9.832;2023-04-03T11:00:29;1.97;;;1.80;;
8100;SDS011;4093;53.470;9.832;2023-04-03T11:03:05;7.23;;;1.87;;
8100;SDS011;4093;53.470;9.832;2023-04-03T11:05:40;2.67;;;1.70;;
8100;SDS011;4093;53.470;9.832;2023-04-03T11:08:13;3.00;;;1.90;;
8100;SDS011;4093;53.470;9.832;2023-04-03T11:10:51;3.23;;;1.80;;
8100;SDS011;4093;53.470;9.832;2023-04-03T11:13:24;2.37;;;1.77;;
8100;SDS011;4093;53.470;9.832;2023-04-03T11:15:58;3.73;;;1.90;;
8100;SDS011;4093;53.470;9.832;2023-04-03T11:18:27;3.87;;;2.00;;
8100;SDS011;4093;53.470;9.832;2023-04-03T11:21:04;2.43;;;1.80;;
8100;SDS011;4093;53.470;9.832;2023-04-03T11:23:36;2.93;;;2.13;;
8100;SDS011;4093;53.470;9.832;2023-04-03T11:26:15;2.30;;;1.73;;
8100;SDS011;4093;53.470;9.832;2023-04-03T11:28:50;4.27;;;2.03;;
8100;SDS011;4093;53.470;9.832;2023-04-03T11:31:24;2.87;;;1.77;;
8100;SDS011;4093;53.470;9.832;2023-04-03T11:34:05;2.10;;;1.70;;
8100;SDS011;4093;53.470;9.832;2023-04-03T11:36:43;1.97;;;1.50;;
8100;SDS011;4093;53.470;9.832;2023-04-03T11:39:18;2.27;;;1.60;;
8100;SDS011;4093;53.470;9.832;2023-04-03T11:41:50;3.23;;;2.00;;
8100;SDS011;4093;53.470;9.832;2023-04-03T11:44:30;2.57;;;2.00;;
8100;SDS011;4093;53.470;9.832;2023-04-03T11:47:02;4.90;;;2.00;;
8100;SDS011;4093;53.470;9.832;2023-04-03T11:55:49;2.20;;;1.80;;
8100;SDS011;4093;53.470;9.832;2023-04-03T11:58:22;5.83;;;2.23;;
8100;SDS011;4093;53.470;9.832;2023-04-03T12:00:57;3.63;;;2.13;;
8100;SDS011;4093;53.470;9.832;2023-04-03T12:12:57;2.30;;;2.07;;
8100;SDS011;4093;53.470;9.832;2023-04-03T12:22:03;4.80;;;1.87;;
8100;SDS011;4093;53.470;9.832;2023-04-03T12:24:35;3.50;;;1.73;;
8100;SDS011;4093;53.470;9.832;2023-04-03T12:27:13;3.30;;;1.93;;
8100;SDS011;4093;53.470;9.832;2023-04-03T12:29:50;2.23;;;1.83;;
8100;SDS011;4093;53.470;9.832;2023-04-03T12:32:24;3.63;;;2.10;;
8100;SDS011;4093;53.470;9.832;2023-04-03T12:35:09;5.57;;;1.97;;
8100;SDS011;4093;53.470;9.832;2023-04-03T12:41:02;5.00;;;2.00;;
8100;SDS011;4093;53.470;9.832;2023-04-03T12:43:50;3.63;;;2.17;;
8100;SDS011;4093;53.470;9.832;2023-04-03T12:46:37;2.80;;;2.17;;
8100;SDS011;4093;53.470;9.832;2023-04-03T12:49:13;3.20;;;1.90;;
8100;SDS011;4093;53.470;9.832;2023-04-03T12:51:51;2.10;;;1.90;;
8100;SDS011;4093;53.470;9.832;2023-04-03T12:54:21;2.43;;;2.23;;
8100;SDS011;4093;53.470;9.832;2023-04-03T12:57:08;2.77;;;2.27;;
8100;SDS011;4093;53.470;9.832;2023-04-03T12:59:38;3.87;;;2.10;;
8100;SDS011;4093;53.470;9.832;2023-04-03T13:02:13;4.07;;;1.90;;
8100;SDS011;4093;53.470;9.832;2023-04-03T13:04:50;3.67;;;2.07;;
8100;SDS011;4093;53.470;9.832;2023-04-03T13:07:20;4.13;;;2.10;;
8100;SDS011;4093;53.470;9.832;2023-04-03T13:09:55;2.80;;;2.10;;
8100;SDS011;4093;53.470;9.832;2023-04-03T13:12:25;3.63;;;1.80;;
8100;SDS011;4093;53.470;9.832;2023-04-03T13:14:57;2.97;;;2.13;;
8100;SDS011;4093;53.470;9.832;2023-04-03T13:17:27;3.60;;;1.97;;
8100;SDS011;4093;53.470;9.832;2023-04-03T13:19:55;4.50;;;2.23;;
8100;SDS011;4093;53.470;9.832;2023-04-03T13:22:39;4.27;;;2.77;;
8100;SDS011;4093;53.470;9.832;2023-04-03T13:25:15;3.77;;;1.90;;
8100;SDS011;4093;53.470;9.832;2023-04-03T13:27:44;5.33;;;1.93;;
8100;SDS011;4093;53.470;9.832;2023-04-03T13:30:20;1.90;;;1.73;;
8100;SDS011;4093;53.470;9.832;2023-04-03T13:32:51;5.23;;;2.03;;
8100;SDS011;4093;53.470;9.832;2023-04-03T13:35:35;2.83;;;1.80;;
8100;SDS011;4093;53.470;9.832;2023-04-03T13:38:06;2.43;;;2.00;;
8100;SDS011;4093;53.470;9.832;2023-04-03T13:40:49;4.67;;;2.20;;
8100;SDS011;4093;53.470;9.832;2023-04-03T13:43:20;5.13;;;2.00;;
8100;SDS011;4093;53.470;9.832;2023-04-03T13:45:55;3.73;;;1.77;;
8100;SDS011;4093;53.470;9.832;2023-04-03T13:48:26;2.57;;;1.80;;
8100;SDS011;4093;53.470;9.832;2023-04-03T13:50:56;2.40;;;1.87;;
8100;SDS011;4093;53.470;9.832;2023-04-03T13:53:26;2.20;;;2.00;;
8100;SDS011;4093;53.470;9.832;2023-04-03T13:56:00;6.87;;;2.10;;
8100;SDS011;4093;53.470;9.832;2023-04-03T13:58:33;2.73;;;2.20;;
8100;SDS011;4093;53.470;9.832;2023-04-03T14:01:08;3.53;;;1.93;;
8100;SDS011;4093;53.470;9.832;2023-04-03T14:03:42;2.87;;;1.87;;
8100;SDS011;4093;53.470;9.832;2023-04-03T14:06:12;4.00;;;2.00;;
8100;SDS011;4093;53.470;9.832;2023-04-03T14:08:42;2.77;;;1.97;;
8100;SDS011;4093;53.470;9.832;2023-04-03T14:11:12;2.40;;;1.97;;
8100;SDS011;4093;53.470;9.832;2023-04-03T14:13:42;2.40;;;1.73;;
8100;SDS011;4093;53.470;9.832;2023-04-03T14:16:14;3.50;;;2.13;;
8100;SDS011;4093;53.470;9.832;2023-04-03T14:18:43;3.00;;;1.80;;
8100;SDS011;4093;53.470;9.832;2023-04-03T14:21:12;3.80;;;1.90;;
8100;SDS011;4093;53.470;9.832;2023-04-03T14:23:41;4.00;;;2.10;;
8100;SDS011;4093;53.470;9.832;2023-04-03T14:26:10;3.10;;;1.90;;
8100;SDS011;4093;53.470;9.832;2023-04-03T14:28:40;2.53;;;1.93;;
8100;SDS011;4093;53.470;9.832;2023-04-03T14:31:10;2.47;;;1.90;;
8100;SDS011;4093;53.470;9.832;2023-04-03T14:33:40;3.97;;;1.97;;
8100;SDS011;4093;53.470;9.832;2023-04-03T14:36:11;4.43;;;2.30;;
8100;SDS011;4093;53.470;9.832;2023-04-03T14:38:41;5.27;;;1.83;;
8100;SDS011;4093;53.470;9.832;2023-04-03T14:41:10;1.93;;;1.83;;
8100;SDS011;4093;53.470;9.832;2023-04-03T14:43:42;2.30;;;1.90;;
8100;SDS011;4093;53.470;9.832;2023-04-03T14:46:11;3.17;;;1.80;;
8100;SDS011;4093;53.470;9.832;2023-04-03T14:48:43;2.00;;;1.90;;
8100;SDS011;4093;53.470;9.832;2023-04-03T14:51:12;3.63;;;1.97;;
8100;SDS011;4093;53.470;9.832;2023-04-03T14:53:41;3.57;;;2.70;;
8100;SDS011;4093;53.470;9.832;2023-04-03T14:56:11;3.60;;;2.30;;
8100;SDS011;4093;53.470;9.832;2023-04-03T14:58:41;2.43;;;1.70;;
8100;SDS011;4093;53.470;9.832;2023-04-03T15:01:09;2.03;;;1.63;;
8100;SDS011;4093;53.470;9.832;2023-04-03T15:03:38;3.23;;;1.83;;
8100;SDS011;4093;53.470;9.832;2023-04-03T15:06:09;3.73;;;2.07;;
8100;SDS011;4093;53.470;9.832;2023-04-03T15:08:37;4.27;;;2.40;;
8100;SDS011;4093;53.470;9.832;2023-04-03T15:11:07;2.60;;;2.00;;
8100;SDS011;4093;53.470;9.832;2023-04-03T15:13:36;3.13;;;1.83;;
8100;SDS011;4093;53.470;9.832;2023-04-03T15:16:04;3.47;;;1.83;;
8100;SDS011;4093;53.470;9.832;2023-04-03T15:18:33;3.53;;;2.27;;
8100;SDS011;4093;53.470;9.832;2023-04-03T15:21:05;2.73;;;2.10;;
8100;SDS011;4093;53.470;9.832;2023-04-03T15:23:34;4.80;;;2.00;;
8100;SDS011;4093;53.470;9.832;2023-04-03T15:26:02;1.90;;;1.63;;
8100;SDS011;4093;53.470;9.832;2023-04-03T15:28:31;3.43;;;2.53;;
8100;SDS011;4093;53.470;9.832;2023-04-03T15:31:02;4.27;;;2.10;;
8100;SDS011;4093;53.470;9.832;2023-04-03T15:33:31;2.13;;;1.80;;
8100;SDS011;4093;53.470;9.832;2023-04-03T15:36:00;4.80;;;2.10;;
8100;SDS011;4093;53.470;9.832;2023-04-03T15:38:34;3.23;;;2.20;;
8100;SDS011;4093;53.470;9.832;2023-04-03T15:41:04;2.27;;;2.00;;
8100;SDS011;4093;53.470;9.832;2023-04-03T15:43:32;2.53;;;1.87;;
8100;SDS011;4093;53.470;9.832;2023-04-03T15:46:01;2.90;;;1.90;;
8100;SDS011;4093;53.470;9.832;2023-04-03T15:48:29;2.30;;;2.00;;
8100;SDS011;4093;53.470;9.832;2023-04-03T15:50:57;2.87;;;2.00;;
8100;SDS011;4093;53.470;9.832;2023-04-03T15:53:25;2.40;;;2.00;;
8100;SDS011;4093;53.470;9.832;2023-04-03T15:55:54;5.23;;;2.17;;
8100;SDS011;4093;53.470;9.832;2023-04-03T15:58:22;3.43;;;2.37;;
8100;SDS011;4093;53.470;9.832;2023-04-03T16:00:50;3.83;;;2.00;;
8100;SDS011;4093;53.470;9.832;2023-04-03T16:03:18;3.53;;;2.10;;
8100;SDS011;4093;53.470;9.832;2023-04-03T16:05:48;3.87;;;1.80;;
8100;SDS011;4093;53.470;9.832;2023-04-03T16:08:17;2.13;;;1.90;;